sensor_id;sensor_type;location;lat;lon;timestamp;P1;durP1;ratioP1;P2;durP2;ratioP2
77109;SDS011;66062;52.464;16.922;2023-10-09T00:01:39;15.57;;;6.97;;
77109;SDS011;66062;52.464;16.922;2023-10-09T00:04:10;20.15;;;8.30;;
77109;SDS011;66062;52.464;16.922;2023-10-09T00:06:36;15.57;;;6.80;;
77109;SDS011;66062;52.464;16.922;2023-10-09T00:09:05;17.05;;;7.20;;
77109;SDS011;66062;52.464;16.922;2023-10-09T00:11:54;17.58;;;6.68;;
77109;SDS011;66062;52.464;16.922;2023-10-09T00:14:32;15.68;;;6.70;;
77109;SDS011;66062;52.464;16.922;2023-10-09T00:17:05;14.32;;;6.90;;
77109;SDS011;66062;52.464;16.922;2023-10-09T00:19:45;23.25;;;6.82;;
77109;SDS011;66062;52.464;16.922;2023-10-09T00:22:12;19.25;;;6.95;;
77109;SDS011;66062;52.464;16.922;2023-10-09T00:24:55;15.20;;;6.43;;
77109;SDS011;66062;52.464;16.922;2023-10-09T00:27:45;14.93;;;6.30;;
77109;SDS011;66062;52.464;16.922;2023-10-09T00:30:11;13.50;;;5.28;;
77109;SDS011;66062;52.464;16.922;2023-10-09T00:32:40;13.80;;;6.65;;
77109;SDS011;66062;52.464;16.922;2023-10-09T00:35:07;12.82;;;5.63;;
77109;SDS011;66062;52.464;16.922;2023-10-09T00:37:59;12.35;;;5.50;;
77109;SDS011;66062;52.464;16.922;2023-10-09T00:40:31;17.70;;;5.85;;
77109;SDS011;66062;52.464;16.922;2023-10-09T00:42:59;14.18;;;5.18;;
77109;SDS011;66062;52.464;16.922;2023-10-09T00:45:30;14.98;;;6.05;;
77109;SDS011;66062;52.464;16.922;2023-10-09T00:47:57;14.73;;;6.60;;
77109;SDS011;66062;52.464;16.922;2023-10-09T00:50:26;15.02;;;6.65;;
77109;SDS011;66062;52.464;16.922;2023-10-09T00:52:52;15.60;;;6.28;;
77109;SDS011;66062;52.464;16.922;2023-10-09T00:55:27;16.60;;;6.57;;
77109;SDS011;66062;52.464;16.922;2023-10-09T00:58:09;16.33;;;6.63;;
77109;SDS011;66062;52.464;16.922;2023-10-09T01:00:40;16.63;;;6.75;;
77109;SDS011;66062;52.464;16.922;2023-10-09T01:03:08;18.75;;;6.85;;
77109;SDS011;66062;52.464;16.922;2023-10-09T01:08:33;16.00;;;6.15;;
77109;SDS011;66062;52.464;16.922;2023-10-09T01:11:05;14.88;;;6.45;;
77109;SDS011;66062;52.464;16.922;2023-10-09T01:13:34;15.05;;;6.88;;
77109;SDS011;66062;52.464;16.922;2023-10-09T01:16:06;14.77;;;6.72;;
77109;SDS011;66062;52.464;16.922;2023-10-09T01:18:38;16.08;;;7.05;;
77109;SDS011;66062;52.464;16.922;2023-10-09T01:21:06;17.35;;;7.40;;
77109;SDS011;66062;52.464;16.922;2023-10-09T01:23:31;15.68;;;6.53;;
77109;SDS011;66062;52.464;16.922;2023-10-09T01:25:57;17.08;;;6.57;;
77109;SDS011;66062;52.464;16.922;2023-10-09T01:28:22;14.52;;;6.20;;
77109;SDS011;66062;52.464;16.922;2023-10-09T01:30:49;13.98;;;5.90;;
77109;SDS011;66062;52.464;16.922;2023-10-09T01:33:16;13.57;;;5.75;;
77109;SDS011;66062;52.464;16.922;2023-10-09T01:35:49;11.52;;;5.32;;
77109;SDS011;66062;52.464;16.922;2023-10-09T01:38:20;12.65;;;5.10;;
77109;SDS011;66062;52.464;16.922;2023-10-09T01:40:56;12.65;;;5.07;;
77109;SDS011;66062;52.464;16.922;2023-10-09T01:43:28;14.02;;;5.88;;
77109;SDS011;66062;52.464;16.922;2023-10-09T01:45:54;13.27;;;5.63;;
77109;SDS011;66062;52.464;16.922;2023-10-09T01:48:19;12.93;;;5.63;;
77109;SDS011;66062;52.464;16.922;2023-10-09T01:50:49;15.13;;;5.28;;
77109;SDS011;66062;52.464;16.922;2023-10-09T01:53:14;10.75;;;4.50;;
77109;SDS011;66062;52.464;16.922;2023-10-09T01:55:43;11.00;;;4.68;;
77109;SDS011;66062;52.464;16.922;2023-10-09T02:00:49;8.93;;;4.07;;
77109;SDS011;66062;52.464;16.922;2023-10-09T02:03:21;9.73;;;4.03;;
77109;SDS011;66062;52.464;16.922;2023-10-09T02:05:52;11.80;;;4.10;;
77109;SDS011;66062;52.464;16.922;2023-10-09T02:08:51;10.52;;;4.53;;
77109;SDS011;66062;52.464;16.922;2023-10-09T02:11:18;9.88;;;3.72;;
77109;SDS011;66062;52.464;16.922;2023-10-09T02:14:00;8.25;;;3.78;;
77109;SDS011;66062;52.464;16.922;2023-10-09T02:16:27;11.30;;;3.88;;
77109;SDS011;66062;52.464;16.922;2023-10-09T02:19:06;8.45;;;3.75;;
77109;SDS011;66062;52.464;16.922;2023-10-09T02:21:33;10.00;;;3.45;;
77109;SDS011;66062;52.464;16.922;2023-10-09T02:24:02;7.45;;;3.15;;
77109;SDS011;66062;52.464;16.922;2023-10-09T02:26:34;6.68;;;2.30;;
77109;SDS011;66062;52.464;16.922;2023-10-09T02:29:25;6.38;;;2.88;;
77109;SDS011;66062;52.464;16.922;2023-10-09T02:31:51;6.15;;;2.78;;
77109;SDS011;66062;52.464;16.922;2023-10-09T02:34:17;7.88;;;3.08;;
77109;SDS011;66062;52.464;16.922;2023-10-09T02:36:50;8.27;;;3.13;;
77109;SDS011;66062;52.464;16.922;2023-10-09T02:39:25;15.10;;;2.83;;
77109;SDS011;66062;52.464;16.922;2023-10-09T02:41:54;8.60;;;2.92;;
77109;SDS011;66062;52.464;16.922;2023-10-09T02:44:25;6.68;;;2.70;;
77109;SDS011;66062;52.464;16.922;2023-10-09T02:46:51;6.15;;;2.92;;
77109;SDS011;66062;52.464;16.922;2023-10-09T02:49:22;9.02;;;2.90;;
77109;SDS011;66062;52.464;16.922;2023-10-09T02:51:48;7.15;;;2.80;;
77109;SDS011;66062;52.464;16.922;2023-10-09T02:54:18;7.30;;;2.30;;
77109;SDS011;66062;52.464;16.922;2023-10-09T02:56:44;6.55;;;3.05;;
77109;SDS011;66062;52.464;16.922;2023-10-09T02:59:12;8.07;;;3.17;;
77109;SDS011;66062;52.464;16.922;2023-10-09T03:01:39;7.50;;;2.58;;
77109;SDS011;66062;52.464;16.922;2023-10-09T03:04:05;14.02;;;3.13;;
77109;SDS011;66062;52.464;16.922;2023-10-09T03:06:31;6.18;;;2.28;;
77109;SDS011;66062;52.464;16.922;2023-10-09T03:09:00;6.95;;;2.70;;
77109;SDS011;66062;52.464;16.922;2023-10-09T03:11:25;9.43;;;2.78;;
77109;SDS011;66062;52.464;16.922;2023-10-09T03:13:57;5.80;;;2.53;;
77109;SDS011;66062;52.464;16.922;2023-10-09T03:16:22;10.30;;;2.80;;
77109;SDS011;66062;52.464;16.922;2023-10-09T03:18:49;7.28;;;2.40;;
77109;SDS011;66062;52.464;16.922;2023-10-09T03:21:16;5.95;;;2.92;;
77109;SDS011;66062;52.464;16.922;2023-10-09T03:23:42;5.97;;;2.80;;
77109;SDS011;66062;52.464;16.922;2023-10-09T03:28:36;7.00;;;3.05;;
77109;SDS011;66062;52.464;16.922;2023-10-09T03:31:01;7.97;;;3.08;;
77109;SDS011;66062;52.464;16.922;2023-10-09T03:33:30;7.82;;;2.92;;
77109;SDS011;66062;52.464;16.922;2023-10-09T03:35:59;9.20;;;3.63;;
77109;SDS011;66062;52.464;16.922;2023-10-09T03:38:25;9.27;;;3.30;;
77109;SDS011;66062;52.464;16.922;2023-10-09T03:40:54;7.97;;;3.88;;
77109;SDS011;66062;52.464;16.922;2023-10-09T03:43:20;6.93;;;3.38;;
77109;SDS011;66062;52.464;16.922;2023-10-09T03:45:46;10.63;;;3.33;;
77109;SDS011;66062;52.464;16.922;2023-10-09T03:48:18;6.20;;;2.78;;
77109;SDS011;66062;52.464;16.922;2023-10-09T03:50:50;7.88;;;3.28;;
77109;SDS011;66062;52.464;16.922;2023-10-09T03:53:33;6.93;;;3.22;;
77109;SDS011;66062;52.464;16.922;2023-10-09T03:56:01;7.32;;;3.20;;
77109;SDS011;66062;52.464;16.922;2023-10-09T03:58:30;6.07;;;2.70;;
77109;SDS011;66062;52.464;16.922;2023-10-09T04:00:58;7.13;;;3.10;;
77109;SDS011;66062;52.464;16.922;2023-10-09T04:03:24;5.40;;;2.67;;
77109;SDS011;66062;52.464;16.922;2023-10-09T04:05:49;6.65;;;2.70;;
77109;SDS011;66062;52.464;16.922;2023-10-09T04:08:19;6.97;;;2.67;;
77109;SDS011;66062;52.464;16.922;2023-10-09T04:10:45;6.05;;;2.55;;
77109;SDS011;66062;52.464;16.922;2023-10-09T04:13:16;6.63;;;2.90;;
77109;SDS011;66062;52.464;16.922;2023-10-09T04:15:47;6.75;;;3.10;;
77109;SDS011;66062;52.464;16.922;2023-10-09T04:18:14;5.90;;;2.63;;
77109;SDS011;66062;52.464;16.922;2023-10-09T04:20:41;9.82;;;2.85;;
77109;SDS011;66062;52.464;16.922;2023-10-09T04:23:09;6.47;;;2.67;;
77109;SDS011;66062;52.464;16.922;2023-10-09T04:25:41;7.97;;;3.65;;
77109;SDS011;66062;52.464;16.922;2023-10-09T04:28:07;6.32;;;3.13;;
77109;SDS011;66062;52.464;16.922;2023-10-09T04:30:54;7.82;;;3.05;;
77109;SDS011;66062;52.464;16.922;2023-10-09T04:33:20;8.32;;;3.30;;
77109;SDS011;66062;52.464;16.922;2023-10-09T04:38:41;6.78;;;2.92;;
77109;SDS011;66062;52.464;16.922;2023-10-09T04:41:39;6.15;;;2.88;;
77109;SDS011;66062;52.464;16.922;2023-10-09T04:44:08;6.55;;;2.65;;
77109;SDS011;66062;52.464;16.922;2023-10-09T04:46:43;6.88;;;2.83;;
77109;SDS011;66062;52.464;16.922;2023-10-09T04:49:09;5.60;;;2.13;;
77109;SDS011;66062;52.464;16.922;2023-10-09T04:51:53;4.93;;;2.00;;
77109;SDS011;66062;52.464;16.922;2023-10-09T04:54:32;5.53;;;1.80;;
77109;SDS011;66062;52.464;16.922;2023-10-09T04:57:26;3.92;;;1.88;;
77109;SDS011;66062;52.464;16.922;2023-10-09T04:59:52;5.95;;;2.33;;
77109;SDS011;66062;52.464;16.922;2023-10-09T05:02:19;4.25;;;2.00;;
77109;SDS011;66062;52.464;16.922;2023-10-09T05:04:46;5.88;;;2.53;;
77109;SDS011;66062;52.464;16.922;2023-10-09T05:07:16;6.13;;;2.90;;
77109;SDS011;66062;52.464;16.922;2023-10-09T05:09:50;5.55;;;2.35;;
77109;SDS011;66062;52.464;16.922;2023-10-09T05:12:33;7.40;;;3.25;;
77109;SDS011;66062;52.464;16.922;2023-10-09T05:14:58;6.55;;;2.58;;
77109;SDS011;66062;52.464;16.922;2023-10-09T05:17:36;10.18;;;3.63;;
77109;SDS011;66062;52.464;16.922;2023-10-09T05:20:04;11.32;;;3.80;;
77109;SDS011;66062;52.464;16.922;2023-10-09T05:22:51;6.70;;;3.45;;
77109;SDS011;66062;52.464;16.922;2023-10-09T05:25:26;7.80;;;3.33;;
77109;SDS011;66062;52.464;16.922;2023-10-09T05:28:10;9.95;;;3.58;;
77109;SDS011;66062;52.464;16.922;2023-10-09T05:30:55;6.22;;;3.40;;
77109;SDS011;66062;52.464;16.922;2023-10-09T05:33:36;9.55;;;4.55;;
77109;SDS011;66062;52.464;16.922;2023-10-09T05:36:04;7.82;;;3.70;;
77109;SDS011;66062;52.464;16.922;2023-10-09T05:38:39;7.15;;;3.50;;
77109;SDS011;66062;52.464;16.922;2023-10-09T05:41:11;10.10;;;4.00;;
77109;SDS011;66062;52.464;16.922;2023-10-09T05:43:56;7.25;;;3.92;;
77109;SDS011;66062;52.464;16.922;2023-10-09T05:46:40;6.57;;;3.17;;
77109;SDS011;66062;52.464;16.922;2023-10-09T05:49:14;7.55;;;3.50;;
77109;SDS011;66062;52.464;16.922;2023-10-09T05:51:49;6.82;;;3.42;;
77109;SDS011;66062;52.464;16.922;2023-10-09T05:54:18;9.38;;;3.45;;
77109;SDS011;66062;52.464;16.922;2023-10-09T05:57:02;7.25;;;3.40;;
77109;SDS011;66062;52.464;16.922;2023-10-09T05:59:54;9.05;;;3.70;;
77109;SDS011;66062;52.464;16.922;2023-10-09T06:02:38;6.30;;;3.47;;
77109;SDS011;66062;52.464;16.922;2023-10-09T06:05:22;7.43;;;3.78;;
77109;SDS011;66062;52.464;16.922;2023-10-09T06:08:05;6.32;;;3.38;;
77109;SDS011;66062;52.464;16.922;2023-10-09T06:10:32;6.93;;;3.63;;
77109;SDS011;66062;52.464;16.922;2023-10-09T06:13:07;10.48;;;3.47;;
77109;SDS011;66062;52.464;16.922;2023-10-09T06:15:51;9.20;;;3.92;;
77109;SDS011;66062;52.464;16.922;2023-10-09T06:18:34;8.75;;;3.20;;
77109;SDS011;66062;52.464;16.922;2023-10-09T06:20:59;7.00;;;3.00;;
77109;SDS011;66062;52.464;16.922;2023-10-09T06:23:55;6.55;;;2.92;;
77109;SDS011;66062;52.464;16.922;2023-10-09T06:26:39;6.03;;;2.78;;
77109;SDS011;66062;52.464;16.922;2023-10-09T06:29:15;6.78;;;2.97;;
77109;SDS011;66062;52.464;16.922;2023-10-09T06:31:42;6.50;;;3.25;;
77109;SDS011;66062;52.464;16.922;2023-10-09T06:34:26;7.35;;;3.63;;
77109;SDS011;66062;52.464;16.922;2023-10-09T06:37:00;6.07;;;3.40;;
77109;SDS011;66062;52.464;16.922;2023-10-09T06:39:44;7.80;;;3.72;;
77109;SDS011;66062;52.464;16.922;2023-10-09T06:42:34;7.05;;;4.00;;
77109;SDS011;66062;52.464;16.922;2023-10-09T06:45:01;6.30;;;3.47;;
77109;SDS011;66062;52.464;16.922;2023-10-09T06:47:52;11.20;;;3.97;;
77109;SDS011;66062;52.464;16.922;2023-10-09T06:50:21;11.25;;;3.45;;
77109;SDS011;66062;52.464;16.922;2023-10-09T06:52:48;9.77;;;3.67;;
77109;SDS011;66062;52.464;16.922;2023-10-09T06:55:23;8.38;;;3.58;;
77109;SDS011;66062;52.464;16.922;2023-10-09T06:58:00;8.05;;;3.78;;
77109;SDS011;66062;52.464;16.922;2023-10-09T07:00:40;6.28;;;3.40;;
77109;SDS011;66062;52.464;16.922;2023-10-09T07:03:27;6.18;;;3.03;;
77109;SDS011;66062;52.464;16.922;2023-10-09T07:08:55;7.03;;;2.92;;
77109;SDS011;66062;52.464;16.922;2023-10-09T07:11:44;7.53;;;3.65;;
77109;SDS011;66062;52.464;16.922;2023-10-09T07:16:59;6.43;;;3.03;;
77109;SDS011;66062;52.464;16.922;2023-10-09T07:19:42;6.90;;;3.03;;
77109;SDS011;66062;52.464;16.922;2023-10-09T07:22:08;7.00;;;2.65;;
77109;SDS011;66062;52.464;16.922;2023-10-09T07:24:51;7.30;;;2.90;;
77109;SDS011;66062;52.464;16.922;2023-10-09T07:27:26;6.78;;;3.40;;
77109;SDS011;66062;52.464;16.922;2023-10-09T07:30:11;8.65;;;3.20;;
77109;SDS011;66062;52.464;16.922;2023-10-09T07:32:56;7.25;;;3.22;;
77109;SDS011;66062;52.464;16.922;2023-10-09T07:35:36;20.83;;;9.02;;
77109;SDS011;66062;52.464;16.922;2023-10-09T07:38:12;8.25;;;2.92;;
77109;SDS011;66062;52.464;16.922;2023-10-09T07:40:44;8.48;;;3.22;;
77109;SDS011;66062;52.464;16.922;2023-10-09T07:43:35;7.25;;;3.10;;
77109;SDS011;66062;52.464;16.922;2023-10-09T07:46:13;8.00;;;3.40;;
77109;SDS011;66062;52.464;16.922;2023-10-09T07:48:57;6.05;;;2.67;;
77109;SDS011;66062;52.464;16.922;2023-10-09T07:51:39;6.47;;;2.88;;
77109;SDS011;66062;52.464;16.922;2023-10-09T07:54:09;5.70;;;2.60;;
77109;SDS011;66062;52.464;16.922;2023-10-09T07:56:40;5.68;;;2.85;;
77109;SDS011;66062;52.464;16.922;2023-10-09T07:59:09;5.53;;;2.55;;
77109;SDS011;66062;52.464;16.922;2023-10-09T08:01:37;7.25;;;2.70;;
77109;SDS011;66062;52.464;16.922;2023-10-09T08:04:17;6.05;;;2.95;;
77109;SDS011;66062;52.464;16.922;2023-10-09T08:07:02;9.25;;;2.67;;
77109;SDS011;66062;52.464;16.922;2023-10-09T08:09:33;7.90;;;2.95;;
77109;SDS011;66062;52.464;16.922;2023-10-09T08:12:25;7.35;;;2.70;;
77109;SDS011;66062;52.464;16.922;2023-10-09T08:15:23;5.63;;;2.33;;
77109;SDS011;66062;52.464;16.922;2023-10-09T08:17:57;6.10;;;3.38;;
77109;SDS011;66062;52.464;16.922;2023-10-09T08:20:35;7.22;;;2.40;;
77109;SDS011;66062;52.464;16.922;2023-10-09T08:23:27;6.40;;;2.67;;
77109;SDS011;66062;52.464;16.922;2023-10-09T08:26:02;6.53;;;2.42;;
77109;SDS011;66062;52.464;16.922;2023-10-09T08:28:40;5.25;;;2.22;;
77109;SDS011;66062;52.464;16.922;2023-10-09T08:31:17;4.88;;;2.40;;
77109;SDS011;66062;52.464;16.922;2023-10-09T08:34:14;5.78;;;2.00;;
77109;SDS011;66062;52.464;16.922;2023-10-09T08:36:49;8.02;;;3.22;;
77109;SDS011;66062;52.464;16.922;2023-10-09T08:39:18;8.15;;;4.07;;
77109;SDS011;66062;52.464;16.922;2023-10-09T08:41:58;9.80;;;3.50;;
77109;SDS011;66062;52.464;16.922;2023-10-09T08:44:24;7.78;;;3.42;;
77109;SDS011;66062;52.464;16.922;2023-10-09T08:46:54;7.15;;;2.92;;
77109;SDS011;66062;52.464;16.922;2023-10-09T08:49:20;6.40;;;3.58;;
77109;SDS011;66062;52.464;16.922;2023-10-09T08:51:49;6.65;;;2.63;;
77109;SDS011;66062;52.464;16.922;2023-10-09T08:54:17;7.95;;;2.85;;
77109;SDS011;66062;52.464;16.922;2023-10-09T08:56:43;8.32;;;3.17;;
77109;SDS011;66062;52.464;16.922;2023-10-09T08:59:17;7.68;;;3.25;;
77109;SDS011;66062;52.464;16.922;2023-10-09T09:01:47;13.77;;;3.03;;
77109;SDS011;66062;52.464;16.922;2023-10-09T09:04:36;5.68;;;2.50;;
77109;SDS011;66062;52.464;16.922;2023-10-09T09:07:03;6.65;;;2.97;;
77109;SDS011;66062;52.464;16.922;2023-10-09T09:11:57;7.80;;;2.90;;
77109;SDS011;66062;52.464;16.922;2023-10-09T09:14:37;4.47;;;2.28;;
77109;SDS011;66062;52.464;16.922;2023-10-09T09:17:03;5.97;;;2.30;;
77109;SDS011;66062;52.464;16.922;2023-10-09T09:19:31;7.53;;;2.75;;
77109;SDS011;66062;52.464;16.922;2023-10-09T09:21:57;6.85;;;2.63;;
77109;SDS011;66062;52.464;16.922;2023-10-09T09:24:36;5.75;;;2.85;;
77109;SDS011;66062;52.464;16.922;2023-10-09T09:27:03;6.30;;;2.70;;
77109;SDS011;66062;52.464;16.922;2023-10-09T09:29:43;4.72;;;2.30;;
77109;SDS011;66062;52.464;16.922;2023-10-09T09:32:28;4.68;;;2.53;;
77109;SDS011;66062;52.464;16.922;2023-10-09T09:35:00;3.90;;;2.20;;
77109;SDS011;66062;52.464;16.922;2023-10-09T09:37:30;5.20;;;2.47;;
77109;SDS011;66062;52.464;16.922;2023-10-09T09:40:15;4.75;;;2.45;;
77109;SDS011;66062;52.464;16.922;2023-10-09T09:42:57;3.17;;;1.58;;
77109;SDS011;66062;52.464;16.922;2023-10-09T09:45:37;3.70;;;1.80;;
77109;SDS011;66062;52.464;16.922;2023-10-09T09:48:04;4.85;;;2.15;;
77109;SDS011;66062;52.464;16.922;2023-10-09T09:50:40;5.57;;;2.25;;
77109;SDS011;66062;52.464;16.922;2023-10-09T09:53:13;3.65;;;1.92;;
77109;SDS011;66062;52.464;16.922;2023-10-09T09:55:50;5.43;;;2.53;;
77109;SDS011;66062;52.464;16.922;2023-10-09T09:58:23;4.70;;;2.38;;
77109;SDS011;66062;52.464;16.922;2023-10-09T10:01:07;6.60;;;3.20;;
77109;SDS011;66062;52.464;16.922;2023-10-09T10:03:43;5.88;;;3.20;;
77109;SDS011;66062;52.464;16.922;2023-10-09T10:06:13;5.15;;;2.97;;
77109;SDS011;66062;52.464;16.922;2023-10-09T10:08:41;7.13;;;2.85;;
77109;SDS011;66062;52.464;16.922;2023-10-09T10:11:07;11.35;;;3.28;;
77109;SDS011;66062;52.464;16.922;2023-10-09T10:16:10;7.03;;;2.90;;
77109;SDS011;66062;52.464;16.922;2023-10-09T10:18:53;10.52;;;3.15;;
77109;SDS011;66062;52.464;16.922;2023-10-09T10:21:32;5.28;;;2.88;;
77109;SDS011;66062;52.464;16.922;2023-10-09T10:27:14;6.78;;;2.60;;
77109;SDS011;66062;52.464;16.922;2023-10-09T10:29:46;7.25;;;2.67;;
77109;SDS011;66062;52.464;16.922;2023-10-09T10:32:11;4.95;;;2.30;;
77109;SDS011;66062;52.464;16.922;2023-10-09T10:37:11;7.43;;;2.65;;
77109;SDS011;66062;52.464;16.922;2023-10-09T10:39:49;10.07;;;3.22;;
77109;SDS011;66062;52.464;16.922;2023-10-09T10:42:15;8.45;;;2.95;;
77109;SDS011;66062;52.464;16.922;2023-10-09T10:45:01;6.63;;;2.22;;
77109;SDS011;66062;52.464;16.922;2023-10-09T10:47:28;9.18;;;2.50;;
77109;SDS011;66062;52.464;16.922;2023-10-09T10:49:59;5.57;;;2.63;;
77109;SDS011;66062;52.464;16.922;2023-10-09T10:58:14;9.83;;;3.07;;
77109;SDS011;66062;52.464;16.922;2023-10-09T11:01:12;18.15;;;2.95;;
77109;SDS011;66062;52.464;16.922;2023-10-09T11:03:38;5.75;;;2.25;;
77109;SDS011;66062;52.464;16.922;2023-10-09T11:06:30;9.32;;;2.63;;
77109;SDS011;66062;52.464;16.922;2023-10-09T11:09:05;15.07;;;3.13;;
77109;SDS011;66062;52.464;16.922;2023-10-09T11:11:51;40.33;;;4.35;;
77109;SDS011;66062;52.464;16.922;2023-10-09T11:14:20;13.73;;;2.40;;
77109;SDS011;66062;52.464;16.922;2023-10-09T11:16:49;4.25;;;1.90;;
77109;SDS011;66062;52.464;16.922;2023-10-09T11:19:21;8.90;;;2.42;;
77109;SDS011;66062;52.464;16.922;2023-10-09T11:21:50;14.75;;;2.22;;
77109;SDS011;66062;52.464;16.922;2023-10-09T11:24:25;6.25;;;2.00;;
77109;SDS011;66062;52.464;16.922;2023-10-09T11:26:59;7.15;;;3.60;;
77109;SDS011;66062;52.464;16.922;2023-10-09T11:29:30;7.32;;;1.92;;
77109;SDS011;66062;52.464;16.922;2023-10-09T11:32:25;6.03;;;2.03;;
77109;SDS011;66062;52.464;16.922;2023-10-09T11:35:10;5.85;;;2.15;;
77109;SDS011;66062;52.464;16.922;2023-10-09T11:37:40;8.63;;;2.58;;
77109;SDS011;66062;52.464;16.922;2023-10-09T11:40:28;15.07;;;2.60;;
77109;SDS011;66062;52.464;16.922;2023-10-09T11:43:13;8.38;;;1.70;;
77109;SDS011;66062;52.464;16.922;2023-10-09T11:45:39;4.65;;;1.55;;
77109;SDS011;66062;52.464;16.922;2023-10-09T11:48:17;16.00;;;2.53;;
77109;SDS011;66062;52.464;16.922;2023-10-09T11:51:14;6.60;;;1.95;;
77109;SDS011;66062;52.464;16.922;2023-10-09T11:53:44;6.32;;;1.60;;
77109;SDS011;66062;52.464;16.922;2023-10-09T11:56:21;7.95;;;2.00;;
77109;SDS011;66062;52.464;16.922;2023-10-09T11:58:48;13.30;;;2.13;;
77109;SDS011;66062;52.464;16.922;2023-10-09T12:01:15;10.90;;;1.90;;
77109;SDS011;66062;52.464;16.922;2023-10-09T12:03:43;6.32;;;1.75;;
77109;SDS011;66062;52.464;16.922;2023-10-09T12:06:14;6.65;;;2.25;;
77109;SDS011;66062;52.464;16.922;2023-10-09T12:08:39;5.65;;;1.60;;
77109;SDS011;66062;52.464;16.922;2023-10-09T12:11:05;10.30;;;1.83;;
77109;SDS011;66062;52.464;16.922;2023-10-09T12:13:34;7.85;;;1.83;;
77109;SDS011;66062;52.464;16.922;2023-10-09T12:16:03;13.57;;;2.38;;
77109;SDS011;66062;52.464;16.922;2023-10-09T12:18:33;5.05;;;2.22;;
77109;SDS011;66062;52.464;16.922;2023-10-09T12:20:59;12.10;;;2.35;;
77109;SDS011;66062;52.464;16.922;2023-10-09T12:23:29;4.25;;;2.00;;
77109;SDS011;66062;52.464;16.922;2023-10-09T12:26:00;10.95;;;2.03;;
77109;SDS011;66062;52.464;16.922;2023-10-09T12:28:29;12.23;;;2.22;;
77109;SDS011;66062;52.464;16.922;2023-10-09T12:30:58;5.70;;;2.05;;
77109;SDS011;66062;52.464;16.922;2023-10-09T12:33:26;5.80;;;1.52;;
77109;SDS011;66062;52.464;16.922;2023-10-09T12:38:24;16.48;;;2.75;;
77109;SDS011;66062;52.464;16.922;2023-10-09T12:41:00;5.47;;;2.50;;
77109;SDS011;66062;52.464;16.922;2023-10-09T12:44:04;8.35;;;2.58;;
77109;SDS011;66062;52.464;16.922;2023-10-09T12:46:36;8.65;;;2.17;;
77109;SDS011;66062;52.464;16.922;2023-10-09T12:49:02;5.55;;;2.40;;
77109;SDS011;66062;52.464;16.922;2023-10-09T12:51:27;20.45;;;2.92;;
77109;SDS011;66062;52.464;16.922;2023-10-09T12:53:55;5.47;;;2.05;;
77109;SDS011;66062;52.464;16.922;2023-10-09T12:56:26;3.85;;;1.83;;
77109;SDS011;66062;52.464;16.922;2023-10-09T12:59:02;5.15;;;2.33;;
77109;SDS011;66062;52.464;16.922;2023-10-09T13:01:30;5.30;;;2.47;;
77109;SDS011;66062;52.464;16.922;2023-10-09T13:04:07;9.73;;;2.10;;
77109;SDS011;66062;52.464;16.922;2023-10-09T13:06:40;5.43;;;1.90;;
77109;SDS011;66062;52.464;16.922;2023-10-09T13:09:09;11.90;;;2.55;;
77109;SDS011;66062;52.464;16.922;2023-10-09T13:11:39;8.68;;;2.95;;
77109;SDS011;66062;52.464;16.922;2023-10-09T13:14:07;10.73;;;2.75;;
77109;SDS011;66062;52.464;16.922;2023-10-09T13:16:41;3.60;;;1.60;;
77109;SDS011;66062;52.464;16.922;2023-10-09T13:19:07;8.45;;;1.80;;
77109;SDS011;66062;52.464;16.922;2023-10-09T13:21:36;4.85;;;1.60;;
77109;SDS011;66062;52.464;16.922;2023-10-09T13:24:05;7.13;;;1.70;;
77109;SDS011;66062;52.464;16.922;2023-10-09T13:26:38;3.92;;;1.45;;
77109;SDS011;66062;52.464;16.922;2023-10-09T13:29:04;4.95;;;1.75;;
77109;SDS011;66062;52.464;16.922;2023-10-09T13:31:34;7.32;;;2.20;;
77109;SDS011;66062;52.464;16.922;2023-10-09T13:34:03;3.47;;;2.00;;
77109;SDS011;66062;52.464;16.922;2023-10-09T13:36:31;14.15;;;2.63;;
77109;SDS011;66062;52.464;16.922;2023-10-09T13:39:05;9.50;;;2.05;;
77109;SDS011;66062;52.464;16.922;2023-10-09T13:41:50;11.60;;;2.05;;
77109;SDS011;66062;52.464;16.922;2023-10-09T13:44:26;17.25;;;3.25;;
77109;SDS011;66062;52.464;16.922;2023-10-09T13:46:59;21.40;;;3.17;;
77109;SDS011;66062;52.464;16.922;2023-10-09T13:49:27;10.15;;;2.50;;
77109;SDS011;66062;52.464;16.922;2023-10-09T13:51:56;7.40;;;2.83;;
77109;SDS011;66062;52.464;16.922;2023-10-09T13:54:22;25.20;;;3.92;;
77109;SDS011;66062;52.464;16.922;2023-10-09T13:57:14;11.32;;;3.15;;
77109;SDS011;66062;52.464;16.922;2023-10-09T13:59:40;8.25;;;2.55;;
77109;SDS011;66062;52.464;16.922;2023-10-09T14:02:15;12.75;;;3.60;;
77109;SDS011;66062;52.464;16.922;2023-10-09T14:04:44;10.00;;;3.13;;
77109;SDS011;66062;52.464;16.922;2023-10-09T14:07:11;6.65;;;3.00;;
77109;SDS011;66062;52.464;16.922;2023-10-09T14:09:41;4.97;;;2.10;;
77109;SDS011;66062;52.464;16.922;2023-10-09T14:12:20;6.85;;;3.25;;
77109;SDS011;66062;52.464;16.922;2023-10-09T14:17:14;7.32;;;3.95;;
77109;SDS011;66062;52.464;16.922;2023-10-09T14:19:50;5.13;;;2.70;;
77109;SDS011;66062;52.464;16.922;2023-10-09T14:22:17;5.57;;;2.78;;
77109;SDS011;66062;52.464;16.922;2023-10-09T14:27:12;6.78;;;2.97;;
77109;SDS011;66062;52.464;16.922;2023-10-09T14:29:45;4.03;;;1.83;;
77109;SDS011;66062;52.464;16.922;2023-10-09T14:32:11;5.72;;;2.50;;
77109;SDS011;66062;52.464;16.922;2023-10-09T14:34:39;5.03;;;2.28;;
77109;SDS011;66062;52.464;16.922;2023-10-09T14:37:16;5.25;;;2.22;;
77109;SDS011;66062;52.464;16.922;2023-10-09T14:39:44;4.30;;;2.78;;
77109;SDS011;66062;52.464;16.922;2023-10-09T14:42:13;4.70;;;2.20;;
77109;SDS011;66062;52.464;16.922;2023-10-09T14:44:40;5.32;;;2.42;;
77109;SDS011;66062;52.464;16.922;2023-10-09T14:47:06;5.88;;;2.35;;
77109;SDS011;66062;52.464;16.922;2023-10-09T14:49:33;3.70;;;1.85;;
77109;SDS011;66062;52.464;16.922;2023-10-09T14:52:05;4.35;;;2.05;;
77109;SDS011;66062;52.464;16.922;2023-10-09T14:54:34;5.18;;;2.22;;
77109;SDS011;66062;52.464;16.922;2023-10-09T14:57:00;6.55;;;2.60;;
77109;SDS011;66062;52.464;16.922;2023-10-09T14:59:25;6.30;;;2.45;;
77109;SDS011;66062;52.464;16.922;2023-10-09T15:01:51;6.05;;;2.67;;
77109;SDS011;66062;52.464;16.922;2023-10-09T15:04:18;3.95;;;1.90;;
77109;SDS011;66062;52.464;16.922;2023-10-09T15:06:44;5.05;;;2.03;;
77109;SDS011;66062;52.464;16.922;2023-10-09T15:09:13;5.10;;;2.28;;
77109;SDS011;66062;52.464;16.922;2023-10-09T15:11:47;6.53;;;2.15;;
77109;SDS011;66062;52.464;16.922;2023-10-09T15:14:16;6.85;;;2.42;;
77109;SDS011;66062;52.464;16.922;2023-10-09T15:16:43;5.13;;;2.25;;
77109;SDS011;66062;52.464;16.922;2023-10-09T15:19:09;4.35;;;1.92;;
77109;SDS011;66062;52.464;16.922;2023-10-09T15:21:38;5.55;;;2.25;;
77109;SDS011;66062;52.464;16.922;2023-10-09T15:24:10;5.60;;;2.17;;
77109;SDS011;66062;52.464;16.922;2023-10-09T15:26:44;5.70;;;2.28;;
77109;SDS011;66062;52.464;16.922;2023-10-09T15:29:17;4.05;;;2.13;;
77109;SDS011;66062;52.464;16.922;2023-10-09T15:31:44;6.55;;;2.25;;
77109;SDS011;66062;52.464;16.922;2023-10-09T15:34:12;4.78;;;1.92;;
77109;SDS011;66062;52.464;16.922;2023-10-09T15:36:37;6.05;;;2.83;;
77109;SDS011;66062;52.464;16.922;2023-10-09T15:41:33;5.93;;;2.33;;
77109;SDS011;66062;52.464;16.922;2023-10-09T15:43:59;6.50;;;2.70;;
77109;SDS011;66062;52.464;16.922;2023-10-09T15:46:26;5.88;;;2.17;;
77109;SDS011;66062;52.464;16.922;2023-10-09T15:48:52;5.57;;;2.42;;